Time;durP1;ratioP1;P1;durP2;ratioP2;P2;SDS_P1;SDS_P2;PMS_P1;PMS_P2;Temp;Humidity;BMP_temperature;BMP_pressure;BME280_temperature;BME280_humidity;BME280_pressure;Samples;Min_cycle;Max_cycle;Signal;HPM_P1;HPM_P2
2023/04/10 00:00:56;;;;;;;;;;;;;;;3.97;100.00;101143.03;5569144;32;34022;-66
2023/04/10 00:03:59;;;;;;;;;;;;;;;3.91;100.00;101133.81;5569501;32;34363;-67
2023/04/10 00:07:02;;;;;;;;;;;;;;;3.91;100.00;101135.59;5555695;32;34651;-67
2023/04/10 00:10:05;;;;;;;;;;;;;;;3.87;100.00;101129.72;5569027;32;33928;-67
2023/04/10 00:13:08;;;;;;;;;;;;;;;3.81;100.00;101124.06;5569008;32;34307;-66
2023/04/10 00:16:10;;;;;;;;;;;;;;;3.76;100.00;101120.91;5568890;32;34909;-67
2023/04/10 00:19:13;;;;;;;;;;;;;;;3.70;100.00;101113.47;5569224;32;34366;-66
2023/04/10 00:22:15;;;;;;;;;;;;;;;3.64;100.00;101114.72;5569021;32;34242;-67
2023/04/10 00:25:18;;;;;;;;;;;;;;;3.72;100.00;101109.81;5568912;32;34188;-66
2023/04/10 00:28:21;;;;;;;;;;;;;;;3.83;100.00;101106.41;5568866;32;34801;-67
2023/04/10 00:31:23;;;;;;;;;;;;;;;3.82;100.00;101110.00;5569081;32;33952;-66
2023/04/10 00:34:26;;;;;;;;;;;;;;;3.95;100.00;101105.56;5568987;32;34561;-67
2023/04/10 00:37:29;;;;;;;;;;;;;;;3.96;100.00;101112.50;5569216;32;33832;-67
2023/04/10 00:40:31;;;;;;;;;;;;;;;3.86;100.00;101107.06;5568836;32;34566;-67
2023/04/10 00:43:34;;;;;;;;;;;;;;;4.03;100.00;101103.22;5569033;32;33821;-67
2023/04/10 00:46:37;;;;;;;;;;;;;;;4.11;100.00;101094.84;5568657;32;34481;-67
2023/04/10 00:49:40;;;;;;;;;;;;;;;4.27;100.00;101095.38;5568662;32;34840;-67
2023/04/10 00:52:48;;;;;;;;;;;;;;;4.25;100.00;101098.16;5555515;32;34288;-67
2023/04/10 00:55:51;;;;;;;;;;;;;;;4.24;100.00;101093.00;5568647;32;34324;-67
2023/04/10 00:58:54;;;;;;;;;;;;;;;4.43;100.00;101092.50;5554885;32;34557;-67
2023/04/10 01:01:57;;;;;;;;;;;;;;;4.46;100.00;101092.28;5568832;32;34171;-67
2023/04/10 01:05:01;;;;;;;;;;;;;;;4.34;100.00;101096.66;5554926;32;34832;-67
2023/04/10 01:08:11;;;;;;;;;;;;;;;4.28;100.00;101091.81;5554688;32;34821;-67
2023/04/10 01:11:29;;;;;;;;;;;;;;;4.32;100.00;101093.28;5568075;32;34108;-67
2023/04/10 01:14:37;;;;;;;;;;;;;;;4.37;100.00;101085.91;5568471;32;33946;-67
2023/04/10 01:17:43;;;;;;;;;;;;;;;4.59;100.00;101086.03;5568355;32;34388;-67
2023/04/10 01:20:45;;;;;;;;;;;;;;;4.55;100.00;101089.81;5568409;32;34155;-66
2023/04/10 01:23:51;;;;;;;;;;;;;;;4.51;100.00;101084.91;5568718;32;35162;-67
2023/04/10 01:26:56;;;;;;;;;;;;;;;4.59;100.00;101077.31;5568651;32;34230;-66
2023/04/10 01:30:00;;;;;;;;;;;;;;;4.50;100.00;101085.88;5568431;32;34018;-67
2023/04/10 01:33:08;;;;;;;;;;;;;;;4.40;100.00;101093.59;5568172;32;34842;-67
2023/04/10 01:36:11;;;;;;;;;;;;;;;4.45;100.00;101085.38;5568275;32;35096;-67
2023/04/10 01:39:17;;;;;;;;;;;;;;;4.30;100.00;101085.53;5568390;32;34120;-67
2023/04/10 01:42:21;;;;;;;;;;;;;;;4.15;100.00;101080.53;5568513;32;33706;-67
2023/04/10 01:45:27;;;;;;;;;;;;;;;4.12;100.00;101080.72;5568130;32;34239;-68
2023/04/10 01:48:30;;;;;;;;;;;;;;;4.06;100.00;101081.19;5568093;32;34159;-67
2023/04/10 01:51:33;;;;;;;;;;;;;;;4.00;100.00;101085.09;5568253;32;34280;-67
2023/04/10 01:54:37;;;;;;;;;;;;;;;3.96;100.00;101082.78;5568180;32;34445;-67
2023/04/10 01:57:40;;;;;;;;;;;;;;;3.86;100.00;101074.72;5568455;32;34204;-67
2023/04/10 02:00:43;;;;;;;;;;;;;;;3.68;100.00;101081.25;5568566;32;34363;-67
2023/04/10 02:03:46;;;;;;;;;;;;;;;3.73;100.00;101081.75;5568042;32;34827;-68
2023/04/10 02:06:55;;;;;;;;;;;;;;;3.79;100.00;101082.16;5568496;32;33434;-67
2023/04/10 02:10:10;;;;;;;;;;;;;;;3.64;100.00;101088.47;5554342;32;34843;-67
2023/04/10 02:13:14;;;;;;;;;;;;;;;3.58;100.00;101083.69;5568081;32;34290;-67
2023/04/10 02:16:17;;;;;;;;;;;;;;;3.45;100.00;101088.06;5568046;32;34261;-68
2023/04/10 02:19:22;;;;;;;;;;;;;;;3.49;100.00;101079.88;5567908;32;34804;-67
2023/04/10 02:22:25;;;;;;;;;;;;;;;3.45;100.00;101078.41;5567892;32;34073;-67
2023/04/10 02:25:32;;;;;;;;;;;;;;;3.37;100.00;101080.75;5567944;32;34196;-66
2023/04/10 02:28:38;;;;;;;;;;;;;;;3.35;100.00;101093.09;5568264;32;34515;-67
2023/04/10 02:31:41;;;;;;;;;;;;;;;3.37;100.00;101091.22;5567854;32;34922;-67
2023/04/10 02:34:44;;;;;;;;;;;;;;;3.58;100.00;101080.22;5567845;32;34880;-67
2023/04/10 02:37:46;;;;;;;;;;;;;;;3.48;100.00;101075.59;5567845;32;34150;-67
2023/04/10 02:40:50;;;;;;;;;;;;;;;3.43;100.00;101074.25;5568135;32;34218;-67
2023/04/10 02:43:52;;;;;;;;;;;;;;;3.41;100.00;101071.72;5567657;32;34257;-67
2023/04/10 02:46:57;;;;;;;;;;;;;;;3.40;100.00;101077.06;5568023;32;34081;-67
2023/04/10 02:50:01;;;;;;;;;;;;;;;3.35;100.00;101063.41;5554176;32;34301;-67
2023/04/10 02:53:05;;;;;;;;;;;;;;;3.34;100.00;101061.75;5568056;32;34755;-67
2023/04/10 02:56:08;;;;;;;;;;;;;;;3.33;100.00;101052.22;5567684;32;34122;-67
2023/04/10 02:59:12;;;;;;;;;;;;;;;3.31;100.00;101057.56;5567846;32;34834;-67
2023/04/10 03:02:14;;;;;;;;;;;;;;;3.36;100.00;101054.63;5567853;32;34231;-67
2023/04/10 03:05:17;;;;;;;;;;;;;;;3.21;100.00;101053.87;5553868;32;34238;-67
2023/04/10 03:08:21;;;;;;;;;;;;;;;3.38;100.00;101058.81;5567612;32;34784;-67
2023/04/10 03:11:24;;;;;;;;;;;;;;;3.45;100.00;101059.22;5567501;32;34078;-67
2023/04/10 03:14:27;;;;;;;;;;;;;;;3.42;100.00;101062.06;5553718;32;34131;-67
2023/04/10 03:17:30;;;;;;;;;;;;;;;3.39;100.00;101055.22;5567373;32;34187;-67
2023/04/10 03:20:32;;;;;;;;;;;;;;;3.26;100.00;101059.66;5567324;32;34115;-66
2023/04/10 03:23:35;;;;;;;;;;;;;;;3.37;100.00;101067.63;5567506;32;33902;-67
2023/04/10 03:26:38;;;;;;;;;;;;;;;3.25;100.00;101064.97;5567296;32;33970;-67
2023/04/10 03:29:41;;;;;;;;;;;;;;;3.13;100.00;101066.69;5567581;32;34355;-67
2023/04/10 03:32:43;;;;;;;;;;;;;;;3.33;100.00;101066.16;5566591;32;33687;-67
2023/04/10 03:35:46;;;;;;;;;;;;;;;3.32;100.00;101064.47;5567202;31;34878;-67
2023/04/10 03:38:50;;;;;;;;;;;;;;;3.30;100.00;101068.13;5567411;32;34240;-67
2023/04/10 03:41:53;;;;;;;;;;;;;;;3.33;100.00;101066.16;5567115;32;34500;-67
2023/04/10 03:45:00;;;;;;;;;;;;;;;3.29;100.00;101069.91;5566991;32;34143;-67
2023/04/10 03:48:02;;;;;;;;;;;;;;;3.09;100.00;101065.22;5567076;32;34241;-68
2023/04/10 03:51:11;;;;;;;;;;;;;;;2.98;100.00;101065.91;5566939;32;34182;-67
2023/04/10 03:54:14;;;;;;;;;;;;;;;2.97;100.00;101068.63;5553153;32;34146;-67
2023/04/10 03:57:18;;;;;;;;;;;;;;;2.91;100.00;101071.66;5566854;32;34153;-67
2023/04/10 04:00:23;;;;;;;;;;;;;;;2.88;100.00;101072.72;5566811;32;34753;-67
2023/04/10 04:03:32;;;;;;;;;;;;;;;2.92;100.00;101071.56;5566738;32;34924;-67
2023/04/10 04:06:35;;;;;;;;;;;;;;;2.81;100.00;101073.22;5565836;32;34513;-67
2023/04/10 04:09:40;;;;;;;;;;;;;;;2.77;100.00;101079.59;5552814;32;34203;-67
2023/04/10 04:12:42;;;;;;;;;;;;;;;2.69;100.00;101082.72;5566689;31;34100;-67
2023/04/10 04:15:46;;;;;;;;;;;;;;;2.75;100.00;101092.81;5558501;31;34177;-67
2023/04/10 04:18:49;;;;;;;;;;;;;;;2.70;100.00;101089.66;5586059;31;34385;-67
2023/04/10 04:21:52;;;;;;;;;;;;;;;2.67;100.00;101092.44;5585847;31;34315;-67
2023/04/10 04:24:55;;;;;;;;;;;;;;;2.63;100.00;101091.81;5586217;31;35167;-68
2023/04/10 04:27:58;;;;;;;;;;;;;;;2.54;100.00;101088.97;5572022;31;34224;-67
2023/04/10 04:31:04;;;;;;;;;;;;;;;2.51;100.00;101090.00;5586153;31;33990;-67
2023/04/10 04:34:10;;;;;;;;;;;;;;;2.56;100.00;101084.47;5586044;31;33922;-67
2023/04/10 04:37:13;;;;;;;;;;;;;;;2.56;100.00;101087.94;5571803;31;33830;-66
2023/04/10 04:40:18;;;;;;;;;;;;;;;2.52;100.00;101083.81;5585945;31;33753;-66
2023/04/10 04:43:20;;;;;;;;;;;;;;;2.52;100.00;101089.03;5585152;31;34785;-67
2023/04/10 04:46:26;;;;;;;;;;;;;;;2.51;100.00;101100.50;5586661;31;34756;-68
2023/04/10 04:49:30;;;;;;;;;;;;;;;2.60;100.00;101104.28;5588669;31;34455;-66
2023/04/10 04:52:34;;;;;;;;;;;;;;;2.57;100.00;101113.16;5588360;31;34399;-66
2023/04/10 04:55:36;;;;;;;;;;;;;;;2.55;100.00;101106.38;5588439;31;34624;-66
2023/04/10 04:58:39;;;;;;;;;;;;;;;2.55;100.00;101119.47;5574370;31;34441;-67
2023/04/10 05:01:42;;;;;;;;;;;;;;;2.60;100.00;101120.84;5588570;31;33802;-67
2023/04/10 05:04:45;;;;;;;;;;;;;;;2.66;100.00;101110.91;5574504;31;34280;-66
2023/04/10 05:07:49;;;;;;;;;;;;;;;2.74;100.00;101119.94;5588269;31;34622;-67
2023/04/10 05:10:53;;;;;;;;;;;;;;;2.79;100.00;101122.25;5588012;31;34310;-69
2023/04/10 05:13:56;;;;;;;;;;;;;;;2.84;100.00;101118.41;5574608;31;33977;-67
2023/04/10 05:16:58;;;;;;;;;;;;;;;2.94;100.00;101129.13;5574246;31;34028;-67
2023/04/10 05:20:09;;;;;;;;;;;;;;;3.04;100.00;101124.97;5588036;31;33944;-67
2023/04/10 05:23:12;;;;;;;;;;;;;;;3.09;100.00;101125.50;5587864;31;35022;-66
2023/04/10 05:26:17;;;;;;;;;;;;;;;3.19;100.00;101125.72;5574228;31;34225;-67
2023/04/10 05:29:21;;;;;;;;;;;;;;;3.36;100.00;101128.03;5587981;31;34798;-67
2023/04/10 05:32:25;;;;;;;;;;;;;;;3.42;100.00;101132.88;5587826;31;34514;-67
2023/04/10 05:35:31;;;;;;;;;;;;;;;3.49;100.00;101132.34;5587963;31;34394;-67
2023/04/10 05:38:34;;;;;;;;;;;;;;;3.58;100.00;101128.28;5574044;31;34859;-67
2023/04/10 05:41:37;;;;;;;;;;;;;;;3.63;100.00;101134.03;5588215;31;33849;-70
2023/04/10 05:44:40;;;;;;;;;;;;;;;3.69;100.00;101133.62;5587768;31;34210;-68
2023/04/10 05:47:43;;;;;;;;;;;;;;;3.79;100.00;101125.94;5587998;31;33616;-67
2023/04/10 05:50:46;;;;;;;;;;;;;;;3.92;100.00;101130.22;5587712;31;35603;-67
2023/04/10 05:53:49;;;;;;;;;;;;;;;4.12;100.00;101136.72;5574508;31;34415;-67
2023/04/10 05:56:53;;;;;;;;;;;;;;;4.34;100.00;101123.75;5567813;32;33924;-67
2023/04/10 05:59:56;;;;;;;;;;;;;;;4.41;100.00;101126.75;5569898;31;34707;-67
2023/04/10 06:02:59;;;;;;;;;;;;;;;4.59;100.00;101127.25;5568349;31;34183;-67
2023/04/10 06:06:05;;;;;;;;;;;;;;;4.77;100.00;101124.09;5554509;32;34254;-67
2023/04/10 06:09:08;;;;;;;;;;;;;;;4.91;100.00;101136.22;5567649;32;34274;-68
2023/04/10 06:12:11;;;;;;;;;;;;;;;5.06;100.00;101124.59;5567827;32;34202;-68
2023/04/10 06:15:14;;;;;;;;;;;;;;;5.23;100.00;101129.41;5567726;32;34725;-68
2023/04/10 06:18:17;;;;;;;;;;;;;;;5.25;100.00;101131.94;5567974;32;34201;-68
2023/04/10 06:21:20;;;;;;;;;;;;;;;5.42;100.00;101123.59;5568319;32;34840;-67
2023/04/10 06:24:22;;;;;;;;;;;;;;;5.57;100.00;101137.38;5554191;32;34820;-67
2023/04/10 06:27:26;;;;;;;;;;;;;;;5.68;100.00;101134.75;5567836;31;33901;-67
2023/04/10 06:30:29;;;;;;;;;;;;;;;5.79;100.00;101134.78;5587502;31;34811;-67
2023/04/10 06:33:35;;;;;;;;;;;;;;;5.97;100.00;101141.28;5573964;31;34089;-67
2023/04/10 06:36:38;;;;;;;;;;;;;;;6.26;100.00;101143.41;5587620;31;34091;-67
2023/04/10 06:39:41;;;;;;;;;;;;;;;6.60;100.00;101145.03;5587397;31;34744;-67
2023/04/10 06:42:43;;;;;;;;;;;;;;;6.95;100.00;101140.38;5579315;31;33947;-69
2023/04/10 06:45:47;;;;;;;;;;;;;;;7.64;100.00;101134.63;5579661;31;34183;-68
2023/04/10 06:48:49;;;;;;;;;;;;;;;8.18;100.00;101137.75;5566345;31;34800;-69
2023/04/10 06:51:52;;;;;;;;;;;;;;;8.80;100.00;101136.72;5585450;31;34316;-68
2023/04/10 06:54:54;;;;;;;;;;;;;;;9.75;100.00;101120.84;5587032;31;34704;-68
2023/04/10 06:57:57;;;;;;;;;;;;;;;10.14;100.00;101135.63;5587162;31;34043;-68
2023/04/10 07:01:03;;;;;;;;;;;;;;;9.91;100.00;101123.72;5587440;31;34846;-69
2023/04/10 07:04:06;;;;;;;;;;;;;;;11.27;100.00;101128.03;5587238;31;34236;-69
2023/04/10 07:07:11;;;;;;;;;;;;;;;12.03;89.79;101123.75;5572134;31;34927;-69
2023/04/10 07:10:13;;;;;;;;;;;;;;;12.43;83.71;101128.41;5587326;31;34195;-69
2023/04/10 07:13:16;;;;;;;;;;;;;;;13.05;77.21;101131.50;5587375;31;33882;-70
2023/04/10 07:16:18;;;;;;;;;;;;;;;12.88;74.15;101127.97;5573026;31;34156;-69
2023/04/10 07:19:21;;;;;;;;;;;;;;;13.07;70.98;101129.50;5586988;31;34820;-69
2023/04/10 07:22:23;;;;;;;;;;;;;;;13.61;70.86;101125.34;5586778;31;34772;-70
2023/04/10 07:25:26;;;;;;;;;;;;;;;13.50;64.24;101117.72;5573219;31;34578;-70
2023/04/10 07:28:28;;;;;;;;;;;;;;;14.56;59.39;101124.38;5586929;31;34234;-70
2023/04/10 07:31:31;;;;;;;;;;;;;;;14.87;58.65;101123.50;5586753;31;34173;-70
2023/04/10 07:34:33;;;;;;;;;;;;;;;15.99;55.51;101110.12;5586653;31;34734;-71
2023/04/10 07:37:38;;;;;;;;;;;;;;;16.13;52.34;101111.13;5587099;31;34742;-70
2023/04/10 07:40:40;;;;;;;;;;;;;;;16.85;49.78;101102.13;5586848;31;33962;-71
2023/04/10 07:43:43;;;;;;;;;;;;;;;16.29;47.43;101105.56;5586629;31;33857;-71
2023/04/10 07:46:46;;;;;;;;;;;;;;;16.34;48.01;101106.69;5586616;31;34682;-71
2023/04/10 07:49:49;;;;;;;;;;;;;;;15.65;48.15;101100.81;5586085;31;34226;-71
2023/04/10 07:52:51;;;;;;;;;;;;;;;15.70;49.74;101104.75;5586511;31;34776;-71
2023/04/10 07:55:54;;;;;;;;;;;;;;;17.08;45.49;101096.59;5586356;31;34380;-69
2023/04/10 07:58:58;;;;;;;;;;;;;;;15.52;49.23;101103.28;5586217;31;34735;-70
2023/04/10 08:02:01;;;;;;;;;;;;;;;15.50;48.98;101093.72;5586348;31;34202;-69
2023/04/10 08:05:04;;;;;;;;;;;;;;;14.62;49.71;101091.59;5586526;31;34154;-70
2023/04/10 08:08:06;;;;;;;;;;;;;;;14.81;49.73;101092.19;5586229;31;34315;-70
2023/04/10 08:11:24;;;;;;;;;;;;;;;16.77;46.51;101090.69;5586308;31;33928;-70
2023/04/10 08:14:27;;;;;;;;;;;;;;;17.46;44.08;101094.41;5586188;31;34383;-68
2023/04/10 08:17:30;;;;;;;;;;;;;;;15.54;47.10;101098.56;5586231;31;34644;-70
2023/04/10 08:20:35;;;;;;;;;;;;;;;15.70;46.87;101091.37;5588601;31;33920;-70
2023/04/10 08:23:38;;;;;;;;;;;;;;;16.03;45.85;101088.16;5582982;31;34387;-69
2023/04/10 08:26:41;;;;;;;;;;;;;;;16.11;44.52;101081.88;5556789;31;34201;-70
2023/04/10 08:29:44;;;;;;;;;;;;;;;16.57;43.88;101089.62;5571100;31;34039;-69
2023/04/10 08:32:46;;;;;;;;;;;;;;;16.93;42.57;101085.94;5568792;32;34034;-69
2023/04/10 08:35:48;;;;;;;;;;;;;;;16.22;42.37;101081.37;5568780;32;34041;-69
2023/04/10 08:38:51;;;;;;;;;;;;;;;16.45;42.50;101073.22;5568968;32;34754;-69
2023/04/10 08:41:54;;;;;;;;;;;;;;;17.97;41.41;101076.16;5568768;31;34271;-69
2023/04/10 08:44:57;;;;;;;;;;;;;;;17.13;41.48;101071.88;5568395;32;34041;-70
2023/04/10 08:48:03;;;;;;;;;;;;;;;16.62;42.36;101069.31;5568289;32;33663;-71
2023/04/10 08:51:07;;;;;;;;;;;;;;;16.31;41.24;101064.22;5568018;32;34137;-70
2023/04/10 08:54:27;;;;;;;;;;;;;;;18.56;37.19;101068.38;5568432;32;34037;-70
2023/04/10 08:57:30;;;;;;;;;;;;;;;18.63;36.26;101068.41;5568107;32;35248;-71
2023/04/10 09:00:34;;;;;;;;;;;;;;;18.74;36.91;101070.47;5568029;32;34303;-71
2023/04/10 09:03:36;;;;;;;;;;;;;;;16.91;38.25;101068.38;5568008;32;34283;-71
2023/04/10 09:06:40;;;;;;;;;;;;;;;17.05;39.22;101067.47;5555392;32;34668;-69
2023/04/10 09:09:42;;;;;;;;;;;;;;;17.13;37.51;101067.34;5568075;32;34378;-70
2023/04/10 09:12:46;;;;;;;;;;;;;;;15.42;40.46;101057.22;5567973;32;34182;-70
2023/04/10 09:15:58;;;;;;;;;;;;;;;15.55;38.76;101061.97;5556359;32;34809;-72
2023/04/10 09:19:01;;;;;;;;;;;;;;;14.50;40.70;101054.81;5567019;32;34806;-70
2023/04/10 09:22:07;;;;;;;;;;;;;;;14.32;41.99;101055.06;5567943;32;33914;-69
2023/04/10 09:25:27;;;;;;;;;;;;;;;13.78;43.14;101046.16;5567958;32;34134;-72
2023/04/10 09:28:29;;;;;;;;;;;;;;;13.95;43.46;101045.06;5568011;32;34413;-70
2023/04/10 09:31:32;;;;;;;;;;;;;;;14.19;44.24;101039.59;5567210;32;34682;-70
2023/04/10 09:34:50;;;;;;;;;;;;;;;14.31;42.26;101040.06;5567564;32;34116;-70
2023/04/10 09:37:53;;;;;;;;;;;;;;;14.93;41.47;101030.13;5567869;32;34768;-70
2023/04/10 09:41:05;;;;;;;;;;;;;;;14.92;42.60;101032.97;5554179;32;34164;-69
2023/04/10 09:44:09;;;;;;;;;;;;;;;15.02;41.45;101028.19;5568170;32;34653;-69
2023/04/10 09:47:15;;;;;;;;;;;;;;;15.13;41.55;101033.13;5541637;32;34402;-68
2023/04/10 09:50:32;;;;;;;;;;;;;;;15.05;41.95;101031.38;5568477;32;34261;-68
2023/04/10 09:53:49;;;;;;;;;;;;;;;14.16;43.28;101029.28;5568158;32;34378;-68
2023/04/10 09:56:52;;;;;;;;;;;;;;;13.83;44.59;101025.97;5567955;32;34339;-70
2023/04/10 09:59:56;;;;;;;;;;;;;;;14.84;43.48;101022.34;5568053;32;34142;-69
2023/04/10 10:03:00;;;;;;;;;;;;;;;15.11;42.66;101017.25;5567704;32;34094;-68
2023/04/10 10:06:03;;;;;;;;;;;;;;;15.05;43.27;101019.84;5568136;32;34140;-69
2023/04/10 10:09:06;;;;;;;;;;;;;;;15.37;42.39;101027.53;5568290;32;34736;-70
2023/04/10 10:12:10;;;;;;;;;;;;;;;15.88;39.94;101007.06;5570814;31;34156;-68
2023/04/10 10:15:15;;;;;;;;;;;;;;;15.41;41.45;101007.44;5567990;32;34226;-68
2023/04/10 10:18:50;;;;;;;;;;;;;;;14.76;42.44;101013.37;5573437;31;34425;-69
2023/04/10 10:21:54;;;;;;;;;;;;;;;14.98;42.41;101009.03;5535714;31;35435;-68
2023/04/10 10:24:58;;;;;;;;;;;;;;;14.93;41.84;101005.25;5567974;31;34531;-67
2023/04/10 10:28:02;;;;;;;;;;;;;;;14.30;43.92;101001.84;5567829;32;34650;-69
2023/04/10 10:31:05;;;;;;;;;;;;;;;14.44;44.44;100996.78;5570681;31;34389;-69
2023/04/10 10:34:08;;;;;;;;;;;;;;;14.76;44.07;100994.69;5567855;32;34232;-69
2023/04/10 10:37:11;;;;;;;;;;;;;;;14.17;45.55;100984.75;5567989;32;34773;-70
2023/04/10 10:40:21;;;;;;;;;;;;;;;14.23;44.88;100995.53;5567700;32;34127;-69
2023/04/10 10:43:32;;;;;;;;;;;;;;;14.46;45.35;100995.63;5565928;32;34799;-69
2023/04/10 10:46:36;;;;;;;;;;;;;;;14.85;44.31;100995.47;5567351;31;34243;-69
2023/04/10 10:49:53;;;;;;;;;;;;;;;14.13;44.79;100989.63;5566954;32;34978;-71
2023/04/10 10:52:56;;;;;;;;;;;;;;;14.18;44.46;101003.28;5567102;32;34061;-72
2023/04/10 10:56:19;;;;;;;;;;;;;;;14.25;43.65;100990.03;5567140;32;34629;-70
2023/04/10 10:59:40;;;;;;;;;;;;;;;14.25;43.70;100998.88;5567017;32;34600;-71
2023/04/10 11:02:43;;;;;;;;;;;;;;;14.54;43.94;100992.03;5568397;31;34217;-70
2023/04/10 11:05:50;;;;;;;;;;;;;;;14.34;45.73;100981.81;5558065;31;34776;-69
2023/04/10 11:08:53;;;;;;;;;;;;;;;13.92;47.02;100995.56;5573080;31;34252;-68
2023/04/10 11:11:57;;;;;;;;;;;;;;;13.96;47.66;100988.03;5573957;31;33292;-70
2023/04/10 11:15:02;;;;;;;;;;;;;;;13.90;48.26;100992.25;5567077;32;34394;-69
2023/04/10 11:18:04;;;;;;;;;;;;;;;13.59;49.46;100993.22;5566923;32;34727;-69
2023/04/10 11:21:07;;;;;;;;;;;;;;;13.50;49.75;100992.44;5566762;32;34807;-69
2023/04/10 11:24:10;;;;;;;;;;;;;;;13.46;50.13;100991.09;5566999;32;33970;-70
2023/04/10 11:27:32;;;;;;;;;;;;;;;13.35;50.10;100994.13;5566761;32;33906;-68
2023/04/10 11:30:35;;;;;;;;;;;;;;;13.30;51.01;100984.00;5568013;31;36216;-69
2023/04/10 11:33:39;;;;;;;;;;;;;;;13.44;50.54;100988.59;5567019;32;34634;-71
2023/04/10 11:36:42;;;;;;;;;;;;;;;13.81;48.96;100981.78;5567241;32;34243;-70
2023/04/10 11:39:44;;;;;;;;;;;;;;;14.04;49.26;100993.31;5568696;31;34109;-69
2023/04/10 11:42:46;;;;;;;;;;;;;;;13.56;50.22;100985.56;5582007;31;34413;-69
2023/04/10 11:45:49;;;;;;;;;;;;;;;13.84;49.72;100990.28;5586493;31;34870;-71
2023/04/10 11:48:52;;;;;;;;;;;;;;;14.09;50.00;100988.28;5586428;31;34227;-67
2023/04/10 11:51:56;;;;;;;;;;;;;;;13.98;52.01;100980.72;5578911;31;34721;-69
2023/04/10 11:54:58;;;;;;;;;;;;;;;14.26;53.08;100994.38;5573865;31;34416;-69
2023/04/10 11:58:01;;;;;;;;;;;;;;;13.75;55.64;100987.81;5578302;31;33877;-68
2023/04/10 12:01:04;;;;;;;;;;;;;;;13.20;60.34;100980.69;5567457;31;33609;-69
2023/04/10 12:04:17;;;;;;;;;;;;;;;13.54;59.34;100982.25;5566749;32;34057;-69
2023/04/10 12:07:22;;;;;;;;;;;;;;;14.03;54.60;100980.19;5566637;32;34156;-68
2023/04/10 12:10:25;;;;;;;;;;;;;;;13.83;56.91;100980.63;5566709;32;34868;-68
2023/04/10 12:13:28;;;;;;;;;;;;;;;13.57;58.97;100966.72;5567415;31;34185;-69
2023/04/10 12:16:31;;;;;;;;;;;;;;;13.98;56.62;100966.53;5580268;31;34739;-69
2023/04/10 12:19:34;;;;;;;;;;;;;;;14.18;53.46;100970.41;5576056;31;34146;-68
2023/04/10 12:22:38;;;;;;;;;;;;;;;13.56;55.67;100962.37;5578811;31;32650;-71
2023/04/10 12:25:40;;;;;;;;;;;;;;;13.93;54.43;100965.22;5579572;31;34010;-69
2023/04/10 12:28:50;;;;;;;;;;;;;;;14.32;53.78;100961.66;5585479;31;35071;-68
2023/04/10 12:31:53;;;;;;;;;;;;;;;14.41;55.45;100949.09;5585753;31;33895;-70
2023/04/10 12:34:56;;;;;;;;;;;;;;;13.86;53.56;100940.25;5585211;31;34146;-70
2023/04/10 12:37:59;;;;;;;;;;;;;;;15.93;49.72;100934.25;5585498;31;34598;-69
2023/04/10 12:41:02;;;;;;;;;;;;;;;16.48;45.93;100926.38;5571987;31;34837;-69
2023/04/10 12:44:08;;;;;;;;;;;;;;;16.20;46.73;100920.12;5571482;31;34870;-70
2023/04/10 12:47:11;;;;;;;;;;;;;;;16.78;44.64;100904.78;5566081;31;34168;-69
2023/04/10 12:50:14;;;;;;;;;;;;;;;20.76;38.07;100915.72;5565623;32;35057;-70
2023/04/10 12:53:19;;;;;;;;;;;;;;;23.83;32.46;100910.44;5565549;32;34093;-70
2023/04/10 12:56:23;;;;;;;;;;;;;;;23.73;31.86;100905.63;5565469;32;34677;-70
2023/04/10 12:59:26;;;;;;;;;;;;;;;24.49;29.85;100904.34;5568636;31;34083;-71
2023/04/10 13:02:29;;;;;;;;;;;;;;;23.77;32.10;100895.97;5566184;31;34264;-70
2023/04/10 13:05:32;;;;;;;;;;;;;;;26.40;27.43;100893.44;5554161;32;34427;-71
2023/04/10 13:08:35;;;;;;;;;;;;;;;25.35;29.07;100891.22;5568402;32;34055;-70
2023/04/10 13:11:37;;;;;;;;;;;;;;;23.14;31.52;100885.16;5554907;31;33811;-70
2023/04/10 13:14:40;;;;;;;;;;;;;;;21.28;33.80;100864.97;5569806;31;34077;-70
2023/04/10 13:17:43;;;;;;;;;;;;;;;19.98;37.60;100864.06;5568448;32;34279;-70
2023/04/10 13:20:45;;;;;;;;;;;;;;;22.87;32.96;100859.66;5568509;32;34817;-70
2023/04/10 13:23:48;;;;;;;;;;;;;;;25.74;28.27;100859.34;5568425;32;34458;-71
2023/04/10 13:26:50;;;;;;;;;;;;;;;26.64;27.75;100855.78;5567355;32;34629;-71
2023/04/10 13:29:53;;;;;;;;;;;;;;;29.68;23.18;100851.38;5568840;32;34076;-70
2023/04/10 13:32:55;;;;;;;;;;;;;;;29.47;23.91;100842.50;5568107;32;34430;-70
2023/04/10 13:35:58;;;;;;;;;;;;;;;31.24;21.58;100840.94;5559767;31;34376;-72
2023/04/10 13:39:00;;;;;;;;;;;;;;;32.09;20.98;100840.00;5570049;31;33679;-71
2023/04/10 13:42:03;;;;;;;;;;;;;;;28.63;23.79;100829.63;5572535;31;33842;-72
2023/04/10 13:45:06;;;;;;;;;;;;;;;27.69;24.74;100821.19;5571758;31;34628;-71
2023/04/10 13:48:08;;;;;;;;;;;;;;;27.90;24.34;100820.91;5580727;31;34777;-72
2023/04/10 13:51:11;;;;;;;;;;;;;;;28.48;24.34;100811.38;5586435;31;34822;-72
2023/04/10 13:54:15;;;;;;;;;;;;;;;28.68;23.17;100799.59;5575927;31;34029;-70
2023/04/10 13:57:18;;;;;;;;;;;;;;;28.33;23.29;100805.09;5569525;31;32994;-71
2023/04/10 14:00:21;;;;;;;;;;;;;;;27.76;24.15;100798.00;5553308;32;34285;-72
2023/04/10 14:03:23;;;;;;;;;;;;;;;29.06;23.47;100789.91;5559797;31;34104;-71
2023/04/10 14:06:26;;;;;;;;;;;;;;;29.67;22.26;100787.69;5572584;31;35009;-72
2023/04/10 14:09:30;;;;;;;;;;;;;;;26.06;25.18;100775.09;5553801;32;32852;-72
2023/04/10 14:12:32;;;;;;;;;;;;;;;27.42;23.61;100764.94;5553963;32;34254;-71
2023/04/10 14:15:37;;;;;;;;;;;;;;;26.52;25.11;100762.66;5567528;32;34195;-71
2023/04/10 14:18:39;;;;;;;;;;;;;;;24.61;26.58;100750.41;5567905;32;34878;-70
2023/04/10 14:21:43;;;;;;;;;;;;;;;25.32;26.12;100753.22;5568155;32;34170;-70
2023/04/10 14:24:45;;;;;;;;;;;;;;;25.64;26.24;100753.28;5568214;31;34791;-69
2023/04/10 14:27:48;;;;;;;;;;;;;;;26.00;24.88;100743.53;5569048;31;33901;-69
2023/04/10 14:30:50;;;;;;;;;;;;;;;21.51;30.71;100736.34;5568541;31;34144;-69
2023/04/10 14:33:53;;;;;;;;;;;;;;;19.94;33.67;100729.00;5581605;31;34177;-70
2023/04/10 14:36:57;;;;;;;;;;;;;;;18.97;34.49;100720.53;5586622;31;34317;-70
2023/04/10 14:40:00;;;;;;;;;;;;;;;19.40;35.40;100728.78;5573255;31;34125;-70
2023/04/10 14:43:03;;;;;;;;;;;;;;;19.24;34.47;100711.28;5569667;31;34770;-71
2023/04/10 14:46:06;;;;;;;;;;;;;;;19.35;35.13;100715.16;5580220;31;34252;-70
2023/04/10 14:49:09;;;;;;;;;;;;;;;19.15;35.51;100712.59;5581419;31;34678;-70
2023/04/10 14:52:13;;;;;;;;;;;;;;;18.21;36.15;100696.16;5555064;31;34739;-70
2023/04/10 14:55:15;;;;;;;;;;;;;;;18.02;36.75;100699.69;5555960;32;33927;-70
2023/04/10 14:58:18;;;;;;;;;;;;;;;17.67;36.94;100697.22;5567035;32;34305;-71
2023/04/10 15:01:20;;;;;;;;;;;;;;;18.36;38.24;100690.53;5566304;32;34624;-71
2023/04/10 15:04:23;;;;;;;;;;;;;;;18.26;37.64;100685.59;5581557;31;33679;-72
2023/04/10 15:07:29;;;;;;;;;;;;;;;17.27;38.84;100684.81;5586908;31;34465;-70
2023/04/10 15:10:31;;;;;;;;;;;;;;;17.02;40.04;100683.72;5586786;31;34192;-69
2023/04/10 15:13:34;;;;;;;;;;;;;;;16.54;39.55;100681.03;5571589;31;34176;-71
2023/04/10 15:16:37;;;;;;;;;;;;;;;16.25;40.03;100668.75;5565822;32;34070;-70
2023/04/10 15:19:40;;;;;;;;;;;;;;;16.16;40.91;100666.41;5567261;32;34411;-70
2023/04/10 15:22:43;;;;;;;;;;;;;;;16.04;41.23;100666.97;5567154;32;34611;-70
2023/04/10 15:25:46;;;;;;;;;;;;;;;15.73;41.32;100666.53;5579992;31;34231;-70
2023/04/10 15:28:48;;;;;;;;;;;;;;;15.51;43.43;100657.72;5585836;31;34726;-70
2023/04/10 15:31:51;;;;;;;;;;;;;;;15.57;43.17;100653.44;5581981;31;34777;-70
2023/04/10 15:34:54;;;;;;;;;;;;;;;15.50;43.89;100650.69;5552672;32;34835;-70
2023/04/10 15:37:56;;;;;;;;;;;;;;;15.41;43.61;100643.81;5566322;32;34415;-70
2023/04/10 15:40:59;;;;;;;;;;;;;;;15.29;43.62;100648.03;5552702;32;34613;-70
2023/04/10 15:44:02;;;;;;;;;;;;;;;15.40;43.99;100652.00;5566091;32;34220;-70